Time;durP1;ratioP1;P1;durP2;ratioP2;P2;SDS_P1;SDS_P2;PMS_P1;PMS_P2;Temp;Humidity;BMP_temperature;BMP_pressure;BME280_temperature;BME280_humidity;BME280_pressure;Samples;Min_cycle;Max_cycle;Signal;HPM_P1;HPM_P2
2021/12/28 00:01:44;;;;;;;55.60;29.25;;;;;;;-4.57;68.80;101500.70;1738137;78;21193;-52
2021/12/28 00:04:52;;;;;;;52.08;29.57;;;;;;;-4.61;69.23;101495.47;1768278;80;21817;-52
2021/12/28 00:07:58;;;;;;;53.70;29.87;;;;;;;-4.56;69.48;101501.98;1777884;80;21566;-53
2021/12/28 00:11:03;;;;;;;50.65;29.42;;;;;;;-4.45;69.67;101504.27;1784986;80;21375;-53
2021/12/28 00:14:09;;;;;;;50.63;30.70;;;;;;;-4.39;69.61;101492.89;1778526;79;21315;-53
2021/12/28 00:20:47;;;;;;;48.05;28.32;;;;;;;-4.30;69.45;101489.91;1804669;79;21350;-51
2021/12/28 00:23:53;;;;;;;52.00;28.80;;;;;;;-4.28;69.33;101480.50;1806409;79;21193;-52
2021/12/28 00:26:59;;;;;;;57.30;31.30;;;;;;;-4.33;69.19;101467.77;1806634;79;21809;-53
2021/12/28 00:30:04;;;;;;;47.93;27.48;;;;;;;-4.42;69.09;101456.94;1805191;79;21172;-53
2021/12/28 00:33:10;;;;;;;43.52;26.48;;;;;;;-4.49;69.19;101454.55;1767308;80;21208;-52
2021/12/28 00:36:15;;;;;;;46.88;26.40;;;;;;;-4.49;69.36;101453.22;1769584;80;21202;-52
2021/12/28 00:39:20;;;;;;;44.83;25.95;;;;;;;-4.49;69.41;101446.54;1769985;80;21315;-54
2021/12/28 00:42:26;;;;;;;49.83;25.32;;;;;;;-4.48;69.46;101446.94;1745845;82;21251;-52
2021/12/28 00:45:35;;;;;;;44.77;24.45;;;;;;;-4.46;69.45;101441.08;1768090;81;21386;-52
2021/12/28 00:48:41;;;;;;;40.70;24.30;;;;;;;-4.44;69.53;101427.21;1778179;80;21200;-53
2021/12/28 00:51:47;;;;;;;40.03;21.95;;;;;;;-4.38;69.59;101425.64;1768008;81;21475;-52
2021/12/28 00:54:53;;;;;;;36.25;22.05;;;;;;;-4.31;69.53;101429.36;1779560;80;21301;-53
2021/12/28 00:57:58;;;;;;;36.38;20.90;;;;;;;-4.29;69.27;101428.84;1806380;79;21248;-53
2021/12/28 01:01:07;;;;;;;30.80;18.32;;;;;;;-4.26;69.26;101427.84;1769641;80;21208;-54
2021/12/28 01:04:15;;;;;;;35.58;20.60;;;;;;;-4.27;69.06;101418.98;1765224;80;21197;-52
2021/12/28 01:07:22;;;;;;;36.42;20.62;;;;;;;-4.26;69.12;101423.38;1768452;80;21194;-52
2021/12/28 01:10:34;;;;;;;33.28;20.43;;;;;;;-4.21;69.20;101412.52;1757492;81;21205;-52
2021/12/28 01:13:39;;;;;;;32.83;19.48;;;;;;;-4.13;69.17;101409.09;1768716;80;21355;-54
2021/12/28 01:16:48;;;;;;;33.35;19.50;;;;;;;-4.05;69.04;101408.33;1768810;80;21367;-52
2021/12/28 01:19:55;;;;;;;32.17;18.25;;;;;;;-4.01;68.84;101405.96;1768752;80;21319;-53
2021/12/28 01:23:02;;;;;;;34.20;18.90;;;;;;;-4.01;68.62;101401.45;1789327;80;21367;-52
2021/12/28 01:26:07;;;;;;;30.52;18.67;;;;;;;-3.98;68.50;101405.34;1817970;78;21228;-53
2021/12/28 01:29:13;;;;;;;33.50;18.20;;;;;;;-3.97;68.36;101382.17;1817796;79;21239;-54
2021/12/28 01:32:19;;;;;;;30.72;17.57;;;;;;;-3.95;68.29;101385.20;1759276;80;21734;-52
2021/12/28 01:35:25;;;;;;;29.20;16.30;;;;;;;-3.95;68.12;101382.53;1767899;80;21943;-53
2021/12/28 01:38:31;;;;;;;35.13;19.25;;;;;;;-3.96;68.08;101376.76;1756575;80;21754;-53
2021/12/28 01:41:36;;;;;;;30.57;18.50;;;;;;;-3.99;67.96;101378.67;1773929;79;21209;-53
2021/12/28 01:44:42;;;;;;;31.48;17.87;;;;;;;-3.99;68.00;101380.89;1770654;79;21335;-52
2021/12/28 01:47:49;;;;;;;31.62;17.75;;;;;;;-3.99;67.90;101376.00;1768410;80;21327;-52
2021/12/28 01:50:58;;;;;;;31.07;17.75;;;;;;;-4.00;67.82;101383.63;1767969;80;21402;-52
2021/12/28 01:54:04;;;;;;;29.80;17.57;;;;;;;-3.99;67.84;101388.91;1768911;80;21394;-53
2021/12/28 01:57:10;;;;;;;29.32;17.82;;;;;;;-3.97;67.91;101386.17;1768092;80;21852;-52
2021/12/28 02:00:16;;;;;;;29.48;17.85;;;;;;;-3.91;67.97;101396.63;1780497;79;21375;-52
2021/12/28 02:03:23;;;;;;;30.40;18.37;;;;;;;-3.87;67.82;101400.94;1800501;78;21769;-53
2021/12/28 02:06:35;;;;;;;37.93;19.20;;;;;;;-3.88;67.68;101408.53;1800783;79;21405;-53
2021/12/28 02:09:40;;;;;;;27.70;17.40;;;;;;;-3.84;67.79;101408.84;1800647;79;21189;-52
2021/12/28 02:12:46;;;;;;;29.23;17.45;;;;;;;-3.79;67.73;101401.51;1800774;79;21338;-53
2021/12/28 02:15:54;;;;;;;29.63;18.48;;;;;;;-3.74;67.67;101397.70;1762840;79;21366;-52
2021/12/28 02:19:02;;;;;;;28.30;16.95;;;;;;;-3.70;67.57;101391.77;1804647;79;21231;-54
2021/12/28 02:22:11;;;;;;;30.10;18.45;;;;;;;-3.66;67.41;101400.06;1800650;79;21354;-54
2021/12/28 02:25:18;;;;;;;31.80;17.77;;;;;;;-3.65;67.25;101405.84;1800680;79;21291;-54
2021/12/28 02:28:23;;;;;;;27.95;15.72;;;;;;;-3.63;67.01;101402.16;1800833;79;21346;-54
2021/12/28 02:31:28;;;;;;;29.85;17.90;;;;;;;-3.66;66.62;101411.64;1800804;79;21358;-54
2021/12/28 02:34:35;;;;;;;27.95;17.80;;;;;;;-3.69;66.47;101406.87;1800787;79;21520;-54
2021/12/28 02:37:42;;;;;;;29.18;17.80;;;;;;;-3.72;66.38;101398.52;1787660;79;21727;-53
2021/12/28 02:40:49;;;;;;;31.77;18.02;;;;;;;-3.75;66.27;101403.11;1800797;79;21770;-53
2021/12/28 02:43:55;;;;;;;28.20;16.37;;;;;;;-3.77;66.28;101404.97;1757936;81;21193;-53
2021/12/28 02:47:00;;;;;;;28.42;16.55;;;;;;;-3.74;66.30;101406.22;1768721;79;21225;-53
2021/12/28 02:50:05;;;;;;;29.80;16.48;;;;;;;-3.75;66.12;101400.44;1770948;79;21355;-52
2021/12/28 02:53:10;;;;;;;31.85;17.23;;;;;;;-3.78;66.01;101406.80;1757317;81;21228;-53
2021/12/28 02:56:16;;;;;;;26.77;16.10;;;;;;;-3.78;66.07;101407.25;1768374;80;21869;-53
2021/12/28 02:59:21;;;;;;;29.50;17.10;;;;;;;-3.76;65.98;101400.05;1770411;79;21462;-54
2021/12/28 03:02:28;;;;;;;27.20;16.15;;;;;;;-3.76;65.98;101404.06;1768651;79;21355;-53
2021/12/28 03:05:35;;;;;;;30.62;16.23;;;;;;;-3.75;65.95;101393.30;1779413;79;21248;-52
2021/12/28 03:08:43;;;;;;;26.37;16.32;;;;;;;-3.72;65.96;101392.28;1735566;82;21350;-52
2021/12/28 03:11:48;;;;;;;27.37;15.98;;;;;;;-3.67;65.97;101391.64;1738147;82;21737;-52
2021/12/28 03:14:55;;;;;;;22.95;15.15;;;;;;;-3.63;66.03;101393.28;1765443;81;21323;-53
2021/12/28 03:18:01;;;;;;;27.25;16.15;;;;;;;-3.59;65.90;101382.84;1773523;79;21707;-53
2021/12/28 03:21:07;;;;;;;26.25;16.17;;;;;;;-3.57;65.70;101383.66;1789936;80;21280;-54
2021/12/28 03:24:13;;;;;;;27.25;15.70;;;;;;;-3.54;65.70;101379.06;1774179;81;21195;-53
2021/12/28 03:27:18;;;;;;;28.38;16.73;;;;;;;-3.52;65.65;101377.66;1737986;82;21685;-53
2021/12/28 03:30:26;;;;;;;29.60;15.03;;;;;;;-3.52;65.49;101376.31;1750801;81;21370;-53
2021/12/28 03:33:34;;;;;;;28.50;16.57;;;;;;;-3.57;65.28;101375.63;1736812;82;21371;-53
2021/12/28 03:36:41;;;;;;;26.62;15.93;;;;;;;-3.68;65.12;101365.84;1712404;83;21258;-52
2021/12/28 03:39:46;;;;;;;25.72;16.00;;;;;;;-3.72;65.28;101361.07;1794756;79;21343;-52
2021/12/28 03:42:54;;;;;;;26.35;15.65;;;;;;;-3.72;65.28;101358.85;1800035;78;21335;-53
2021/12/28 03:45:59;;;;;;;25.57;15.68;;;;;;;-3.73;65.27;101352.66;1789555;79;21426;-52
2021/12/28 03:49:08;;;;;;;28.42;15.78;;;;;;;-3.69;65.31;101357.39;1800795;79;21813;-53
2021/12/28 03:52:14;;;;;;;35.60;16.95;;;;;;;-3.70;65.05;101347.63;1800879;79;21331;-52
2021/12/28 03:55:20;;;;;;;29.25;16.77;;;;;;;-3.70;65.02;101355.66;1800986;79;21684;-54
2021/12/28 03:58:25;;;;;;;28.05;15.65;;;;;;;-3.71;64.80;101352.59;1800665;78;21339;-53
2021/12/28 04:01:32;;;;;;;27.02;15.08;;;;;;;-3.75;64.68;101360.31;1767808;81;21264;-55
2021/12/28 04:04:37;;;;;;;24.52;15.10;;;;;;;-3.81;64.44;101354.77;1767672;80;21414;-50
2021/12/28 04:07:42;;;;;;;23.65;14.43;;;;;;;-3.84;64.57;101353.56;1774474;79;21356;-49
2021/12/28 04:11:01;;;;;;;25.88;15.13;;;;;;;-3.85;64.49;101344.27;1767690;80;21869;-50
2021/12/28 04:14:01;;;;;;;25.40;15.63;;;;;;;-3.94;64.56;101329.91;1767844;80;21417;-49
2021/12/28 04:17:10;;;;;;;26.55;15.15;;;;;;;-3.96;64.74;101333.09;1767656;80;21367;-48
2021/12/28 04:20:23;;;;;;;31.85;16.73;;;;;;;-3.95;64.91;101325.05;1758223;80;21351;-49
2021/12/28 04:23:29;;;;;;;23.67;14.13;;;;;;;-3.91;64.90;101323.97;1767796;80;21174;-49
2021/12/28 04:26:34;;;;;;;26.93;15.70;;;;;;;-3.85;64.89;101329.06;1767559;80;21343;-49
2021/12/28 04:29:46;;;;;;;26.42;15.60;;;;;;;-3.79;64.71;101326.62;1767552;80;21197;-49
2021/12/28 04:32:52;;;;;;;24.32;14.45;;;;;;;-3.81;64.28;101327.14;1770577;79;21880;-49
2021/12/28 04:35:58;;;;;;;25.77;15.93;;;;;;;-3.77;64.29;101328.73;1767581;80;21351;-49
2021/12/28 04:39:03;;;;;;;24.23;15.28;;;;;;;-3.77;64.04;101326.06;1768192;80;21821;-50
2021/12/28 04:42:14;;;;;;;27.80;15.32;;;;;;;-3.77;63.65;101318.92;1768101;80;21857;-49
2021/12/28 04:45:22;;;;;;;25.62;14.95;;;;;;;-3.79;63.36;101310.58;1768082;80;21379;-49
2021/12/28 04:48:27;;;;;;;24.47;14.80;;;;;;;-3.86;63.12;101313.96;1767837;80;21359;-49
2021/12/28 04:51:34;;;;;;;24.12;13.93;;;;;;;-3.84;63.21;101307.21;1767780;80;21362;-48
2021/12/28 04:54:39;;;;;;;24.57;14.47;;;;;;;-3.84;63.10;101306.76;1760440;81;21172;-48
2021/12/28 04:57:48;;;;;;;24.90;15.28;;;;;;;-3.83;62.98;101300.92;1765959;81;21821;-48
2021/12/28 05:00:56;;;;;;;25.48;13.88;;;;;;;-3.85;62.59;101305.00;1767332;80;21322;-49
2021/12/28 05:04:04;;;;;;;23.52;13.65;;;;;;;-3.86;62.54;101297.03;1767600;81;21330;-49
2021/12/28 05:07:10;;;;;;;21.68;13.20;;;;;;;-3.85;62.46;101295.63;1767645;80;21330;-48
2021/12/28 05:10:19;;;;;;;23.12;13.85;;;;;;;-3.83;62.26;101283.53;1768138;81;21232;-49
2021/12/28 05:13:25;;;;;;;24.00;13.18;;;;;;;-3.80;62.14;101271.37;1767923;81;21373;-49
2021/12/28 05:16:33;;;;;;;26.23;13.40;;;;;;;-3.78;61.93;101279.75;1767995;80;21208;-49
2021/12/28 05:19:43;;;;;;;20.75;12.33;;;;;;;-3.79;61.80;101274.47;1767758;81;21332;-50
2021/12/28 05:22:49;;;;;;;22.95;12.10;;;;;;;-3.80;61.66;101267.36;1738011;81;21212;-50
2021/12/28 05:25:55;;;;;;;27.45;12.95;;;;;;;-3.77;61.47;101277.47;1737401;82;21375;-50
2021/12/28 05:29:01;;;;;;;27.52;12.10;;;;;;;-3.79;61.13;101268.63;1767724;81;21347;-52
2021/12/28 05:32:07;;;;;;;25.10;13.00;;;;;;;-3.77;60.93;101250.72;1767572;80;21347;-48
2021/12/28 05:35:13;;;;;;;22.77;11.70;;;;;;;-3.74;60.64;101255.09;1769099;80;21857;-48
2021/12/28 05:38:19;;;;;;;23.90;12.25;;;;;;;-3.73;60.20;101256.81;1770737;79;21889;-50
2021/12/28 05:41:24;;;;;;;22.00;11.63;;;;;;;-3.74;59.86;101250.59;1770499;79;21358;-48
2021/12/28 05:44:30;;;;;;;26.90;12.43;;;;;;;-3.71;59.52;101249.61;1767361;80;21351;-50
2021/12/28 05:47:38;;;;;;;24.12;12.00;;;;;;;-3.69;59.23;101251.27;1767861;81;21374;-49
2021/12/28 05:50:47;;;;;;;22.20;11.10;;;;;;;-3.66;58.79;101257.82;1768189;81;21259;-48
2021/12/28 05:53:54;;;;;;;22.77;11.28;;;;;;;-3.67;58.57;101249.86;1760397;81;21314;-49
2021/12/28 05:56:59;;;;;;;19.70;10.32;;;;;;;-3.64;58.45;101254.63;1764618;81;21445;-49
2021/12/28 06:00:11;;;;;;;27.98;12.43;;;;;;;-3.61;58.20;101254.95;1763043;81;21197;-48
2021/12/28 06:03:21;;;;;;;25.68;11.65;;;;;;;-3.66;57.68;101257.82;1765236;81;21903;-49
2021/12/28 06:06:27;;;;;;;24.57;12.13;;;;;;;-3.67;57.72;101260.56;1767857;80;21351;-50
2021/12/28 06:09:35;;;;;;;25.80;11.20;;;;;;;-3.69;57.30;101260.63;1754130;81;21205;-49
2021/12/28 06:12:41;;;;;;;22.98;11.88;;;;;;;-3.68;57.35;101252.99;1732658;83;21217;-49
2021/12/28 06:15:48;;;;;;;24.05;11.43;;;;;;;-3.59;57.32;101258.44;1727452;82;21426;-49
2021/12/28 06:18:55;;;;;;;25.08;12.00;;;;;;;-3.59;56.82;101245.05;1724649;83;21606;-48
2021/12/28 06:22:02;;;;;;;25.50;11.73;;;;;;;-3.58;56.61;101242.77;1769821;80;21495;-49
2021/12/28 06:25:10;;;;;;;22.00;11.95;;;;;;;-3.56;56.65;101250.27;1767815;80;21523;-48
2021/12/28 06:28:15;;;;;;;23.10;11.73;;;;;;;-3.51;56.60;101247.81;1761064;81;21359;-49
2021/12/28 06:31:19;;;;;;;19.20;10.93;;;;;;;-3.47;56.50;101256.55;1757902;81;21367;-48
2021/12/28 06:34:26;;;;;;;23.60;11.95;;;;;;;-3.47;56.38;101241.38;1767860;80;21248;-49
2021/12/28 06:37:31;;;;;;;20.72;12.50;;;;;;;-3.46;56.18;101244.94;1768751;80;21189;-48
2021/12/28 06:40:38;;;;;;;24.77;11.70;;;;;;;-3.44;56.13;101243.07;1744164;81;21199;-48
2021/12/28 06:43:44;;;;;;;28.60;11.85;;;;;;;-3.40;56.18;101244.66;1765572;81;21330;-50
2021/12/28 06:46:54;;;;;;;25.20;12.63;;;;;;;-3.38;56.13;101242.80;1765398;81;21809;-50
2021/12/28 06:50:00;;;;;;;31.95;12.98;;;;;;;-3.30;56.21;101241.98;1762947;80;21853;-49
2021/12/28 06:53:06;;;;;;;20.70;11.00;;;;;;;-3.25;56.10;101229.28;1756836;81;21484;-49
2021/12/28 06:56:12;;;;;;;26.73;13.20;;;;;;;-3.23;55.60;101236.74;1759237;81;21357;-49
2021/12/28 06:59:21;;;;;;;25.50;12.07;;;;;;;-3.21;55.44;101230.86;1767104;80;21324;-49
2021/12/28 07:02:25;;;;;;;26.93;11.18;;;;;;;-3.20;55.24;101234.81;1759153;80;21271;-49
2021/12/28 07:05:32;;;;;;;23.90;10.43;;;;;;;-3.17;55.36;101230.66;1736721;82;21367;-49
2021/12/28 07:08:38;;;;;;;21.65;10.35;;;;;;;-3.13;54.93;101231.39;1752235;81;21229;-49
2021/12/28 07:11:45;;;;;;;22.32;11.78;;;;;;;-3.14;54.89;101239.03;1722378;81;21224;-49
2021/12/28 07:14:53;;;;;;;25.12;11.10;;;;;;;-3.09;54.94;101233.85;1707095;83;21172;-49
2021/12/28 07:18:00;;;;;;;23.20;11.88;;;;;;;-2.99;54.83;101229.41;1772987;80;21202;-49
2021/12/28 07:21:06;;;;;;;24.50;11.68;;;;;;;-2.91;54.48;101229.92;1782624;80;21378;-49
2021/12/28 07:24:13;;;;;;;27.52;11.60;;;;;;;-2.88;54.06;101223.97;1773915;79;21330;-49
2021/12/28 07:27:21;;;;;;;24.52;11.20;;;;;;;-2.90;53.71;101229.01;1790867;79;21331;-49
2021/12/28 07:30:25;;;;;;;22.80;11.15;;;;;;;-2.86;53.82;101226.11;1790229;79;21191;-51
2021/12/28 07:33:31;;;;;;;22.95;10.68;;;;;;;-2.83;53.62;101223.29;1751844;80;21377;-50
2021/12/28 07:36:37;;;;;;;24.87;11.50;;;;;;;-2.77;53.36;101226.14;1791772;78;21364;-49
2021/12/28 07:39:44;;;;;;;22.25;11.30;;;;;;;-2.72;53.24;101221.44;1799321;79;21189;-49
2021/12/28 07:42:51;;;;;;;22.55;10.68;;;;;;;-2.65;53.23;101215.73;1767677;80;21241;-49
2021/12/28 07:45:57;;;;;;;34.40;12.10;;;;;;;-2.60;52.82;101217.70;1768592;80;21217;-49
2021/12/28 07:49:07;;;;;;;20.75;11.15;;;;;;;-2.59;52.55;101216.78;1766291;80;21249;-49
2021/12/28 07:52:13;;;;;;;24.47;11.00;;;;;;;-2.56;52.52;101205.91;1765835;80;21375;-50
2021/12/28 07:55:30;;;;;;;19.32;11.25;;;;;;;-2.55;52.12;101215.68;1766639;80;21342;-50
2021/12/28 07:58:39;;;;;;;26.12;11.90;;;;;;;-2.52;51.95;101214.69;1765486;80;21204;-51
2021/12/28 08:01:50;;;;;;;20.52;11.30;;;;;;;-2.55;51.33;101203.63;1767497;79;21291;-50
2021/12/28 08:04:57;;;;;;;29.30;13.28;;;;;;;-2.57;51.59;101205.53;1765819;79;21200;-49
2021/12/28 08:08:12;;;;;;;21.02;11.48;;;;;;;-2.49;51.80;101203.32;1764920;80;21249;-49
2021/12/28 08:11:23;;;;;;;21.48;10.95;;;;;;;-2.40;51.73;101209.59;1765490;80;22001;-49
2021/12/28 08:14:32;;;;;;;23.07;9.98;;;;;;;-2.35;51.51;101183.45;1749088;80;21197;-50
2021/12/28 08:17:46;;;;;;;19.75;11.48;;;;;;;-2.34;51.41;101193.20;1753266;80;21224;-50
2021/12/28 08:21:06;;;;;;;24.67;11.80;;;;;;;-2.34;51.01;101184.28;1740346;81;21848;-55
2021/12/28 08:24:25;;;;;;;27.87;11.37;;;;;;;-2.32;51.08;101180.61;1753270;80;21319;-51
2021/12/28 08:27:39;;;;;;;26.05;11.60;;;;;;;-2.27;51.01;101164.29;1706329;82;21224;-50
2021/12/28 08:30:50;;;;;;;27.37;10.65;;;;;;;-2.29;50.74;101163.48;1723813;81;21275;-50
2021/12/28 08:33:57;;;;;;;23.70;10.48;;;;;;;-2.31;50.32;101150.62;1744423;81;21964;-50
2021/12/28 08:37:07;;;;;;;32.45;11.08;;;;;;;-2.36;50.22;101145.49;1745013;81;21778;-49
2021/12/28 08:40:16;;;;;;;20.88;11.55;;;;;;;-2.34;50.34;101133.36;1733230;82;21370;-51
2021/12/28 08:43:26;;;;;;;22.55;11.28;;;;;;;-2.32;50.43;101135.03;1722770;82;21168;-50
2021/12/28 08:46:35;;;;;;;25.45;10.93;;;;;;;-2.25;50.33;101123.04;1792416;79;21400;-49
2021/12/28 08:49:44;;;;;;;23.32;11.10;;;;;;;-2.25;49.98;101114.99;1780826;79;21794;-49
2021/12/28 08:52:50;;;;;;;20.57;11.30;;;;;;;-2.22;50.02;101115.33;1770061;79;21237;-50
2021/12/28 08:55:57;;;;;;;30.20;15.08;;;;;;;-2.21;49.81;101103.64;1810102;79;21180;-50
2021/12/28 08:59:01;;;;;;;24.32;10.98;;;;;;;-2.18;50.01;101100.34;1807520;79;21352;-49
2021/12/28 09:02:09;;;;;;;22.75;10.82;;;;;;;-2.10;49.81;101087.41;1809732;79;21212;-50
2021/12/28 09:05:16;;;;;;;25.10;11.53;;;;;;;-2.11;49.35;101091.52;1809538;78;21192;-51
2021/12/28 09:08:23;;;;;;;22.50;11.53;;;;;;;-2.11;49.25;101072.74;1809754;79;21194;-49
2021/12/28 09:11:31;;;;;;;22.85;10.43;;;;;;;-2.10;49.33;101078.03;1759479;80;21439;-50
2021/12/28 09:14:39;;;;;;;24.00;11.30;;;;;;;-2.07;49.54;101071.16;1792555;78;21200;-50
2021/12/28 09:17:46;;;;;;;17.85;10.60;;;;;;;-2.05;49.27;101069.27;1773255;79;22034;-50
2021/12/28 09:20:52;;;;;;;28.32;12.20;;;;;;;-2.12;49.03;101075.89;1710588;82;21201;-49
2021/12/28 09:24:02;;;;;;;21.73;11.70;;;;;;;-2.12;49.30;101061.14;1783542;80;21177;-49
2021/12/28 09:27:09;;;;;;;25.95;15.63;;;;;;;-2.09;49.33;101054.27;1776624;80;21300;-49
2021/12/28 09:30:19;;;;;;;24.85;13.55;;;;;;;-2.05;49.46;101051.84;1753644;80;21214;-50
2021/12/28 09:33:26;;;;;;;23.32;12.35;;;;;;;-2.04;49.27;101033.91;1743260;80;21351;-50
2021/12/28 09:36:34;;;;;;;24.85;11.75;;;;;;;-2.10;49.12;101036.45;1731711;81;21283;-51
2021/12/28 09:39:45;;;;;;;21.97;11.25;;;;;;;-2.27;48.96;101031.11;1792998;80;21845;-51
2021/12/28 09:42:54;;;;;;;24.92;11.05;;;;;;;-2.36;49.27;101024.86;1786751;80;21769;-49
2021/12/28 09:46:07;;;;;;;25.70;11.68;;;;;;;-2.38;49.40;101022.73;1729601;82;21232;-49
2021/12/28 09:49:14;;;;;;;29.15;11.08;;;;;;;-2.37;49.57;101016.91;1748031;80;21248;-52
2021/12/28 09:52:21;;;;;;;21.70;10.72;;;;;;;-2.37;49.48;101024.48;1733897;80;21528;-50
2021/12/28 09:55:31;;;;;;;22.70;11.53;;;;;;;-2.35;49.69;101019.92;1723883;82;21225;-50
2021/12/28 09:58:36;;;;;;;25.68;11.38;;;;;;;-2.31;49.56;101012.55;1744263;81;21176;-50
2021/12/28 10:01:46;;;;;;;23.30;10.30;;;;;;;-2.26;49.61;101014.53;1753603;80;21360;-50
2021/12/28 10:05:06;;;;;;;20.10;11.12;;;;;;;-2.23;49.11;101007.67;1769005;79;21422;-49
2021/12/28 10:08:13;;;;;;;25.45;11.88;;;;;;;-2.36;49.04;101007.44;1788206;79;21329;-50
2021/12/28 10:11:17;;;;;;;19.60;11.40;;;;;;;-2.34;49.51;101008.23;1755333;79;21710;-48
2021/12/28 10:14:33;;;;;;;25.52;11.08;;;;;;;-2.22;49.64;100983.45;1768127;78;21205;-49
2021/12/28 10:17:44;;;;;;;21.82;10.82;;;;;;;-2.11;49.55;100989.61;1698381;83;21216;-49
2021/12/28 10:20:59;;;;;;;33.10;16.07;;;;;;;-2.04;49.23;100978.93;1703550;82;21253;-49
2021/12/28 10:24:05;;;;;;;;;;;;;;;-2.05;49.23;100972.72;1757286;81;21757;-51
2021/12/28 10:27:24;;;;;;;23.22;13.08;;;;;;;-2.09;48.99;100967.11;1755220;81;20556;-50
2021/12/28 10:30:45;;;;;;;27.62;11.45;;;;;;;-2.11;49.07;100966.81;1758948;80;21594;-51
2021/12/28 10:33:55;;;;;;;27.70;13.75;;;;;;;-2.11;49.09;100972.17;1764244;80;21200;-51
2021/12/28 10:37:04;;;;;;;25.72;12.55;;;;;;;-2.16;49.07;100965.73;1751615;81;22094;-52
2021/12/28 10:40:17;;;;;;;20.35;10.88;;;;;;;-2.20;49.33;100968.16;1745809;81;21722;-50
2021/12/28 10:43:26;;;;;;;25.75;11.90;;;;;;;-2.24;49.66;100961.25;1753918;80;22006;-51
2021/12/28 10:46:32;;;;;;;30.60;12.75;;;;;;;-2.25;50.24;100965.34;1765616;80;21185;-49
2021/12/28 10:49:45;;;;;;;20.62;11.50;;;;;;;-2.30;50.96;100956.17;1752378;80;21169;-50
2021/12/28 10:53:00;;;;;;;27.95;11.40;;;;;;;-2.39;51.86;100956.67;1766377;80;21211;-52
2021/12/28 10:56:05;;;;;;;37.10;13.90;;;;;;;-2.51;55.70;100942.59;1726430;82;21268;-50
2021/12/28 10:59:14;;;;;;;24.30;13.18;;;;;;;-2.70;59.93;100947.17;1725014;82;22089;-52
2021/12/28 11:02:30;;;;;;;33.05;12.93;;;;;;;-2.75;59.80;100938.95;1726178;83;21876;-50
2021/12/28 11:05:42;;;;;;;27.27;13.32;;;;;;;-2.83;58.93;100924.63;1727165;82;21243;-50
2021/12/28 11:08:49;;;;;;;24.70;13.03;;;;;;;-2.88;58.74;100929.81;1727640;81;21756;-50
2021/12/28 11:11:58;;;;;;;34.50;12.90;;;;;;;-2.96;59.08;100921.30;1736095;81;21905;-50
2021/12/28 11:15:08;;;;;;;22.55;12.98;;;;;;;-2.97;59.66;100917.77;1785717;79;21429;-51
2021/12/28 11:18:39;;;;;;;22.70;12.68;;;;;;;-3.06;63.35;100915.58;1805201;79;21183;-51
2021/12/28 11:21:59;;;;;;;19.62;12.28;;;;;;;-3.13;64.91;100924.84;1796658;79;21784;-52
2021/12/28 11:25:06;;;;;;;21.30;11.85;;;;;;;-3.20;65.88;100920.27;1736462;82;21776;-54
2021/12/28 11:28:27;;;;;;;22.40;12.23;;;;;;;-3.27;66.55;100911.28;1727125;82;21721;-53
2021/12/28 11:31:47;;;;;;;21.00;11.43;;;;;;;-3.38;67.12;100912.28;1735386;81;21462;-52
2021/12/28 11:34:56;;;;;;;28.38;13.03;;;;;;;-3.43;69.47;100906.30;1737312;82;21730;-53
2021/12/28 11:38:03;;;;;;;24.80;13.25;;;;;;;-3.49;70.58;100906.10;1737582;81;21359;-53
2021/12/28 11:41:13;;;;;;;23.77;12.33;;;;;;;-3.54;70.33;100901.48;1737154;82;21229;-53
2021/12/28 11:44:23;;;;;;;23.73;11.60;;;;;;;-3.58;70.19;100903.02;1764721;81;21372;-53
2021/12/28 11:47:29;;;;;;;20.75;10.98;;;;;;;-3.61;69.96;100884.44;1756580;81;21316;-53
2021/12/28 11:50:39;;;;;;;18.35;10.68;;;;;;;-3.63;69.33;100885.01;1750355;81;21209;-53
2021/12/28 11:53:51;;;;;;;25.30;14.15;;;;;;;-3.62;69.01;100872.02;1763083;81;21174;-53
2021/12/28 11:57:01;;;;;;;22.73;11.48;;;;;;;-3.65;68.86;100863.69;1769700;79;21205;-53
2021/12/28 12:00:19;;;;;;;22.20;11.60;;;;;;;-3.62;68.75;100859.98;1767192;80;21343;-54
2021/12/28 12:03:43;;;;;;;19.80;11.18;;;;;;;-3.57;68.60;100871.33;1768691;79;21331;-54
2021/12/28 12:07:16;;;;;;;20.80;11.25;;;;;;;-3.58;68.59;100843.70;1769872;79;21233;-54
2021/12/28 12:10:30;;;;;;;20.62;11.00;;;;;;;-3.64;69.04;100849.81;1751341;80;21176;-54
2021/12/28 12:13:38;;;;;;;22.70;10.72;;;;;;;-3.67;69.72;100840.15;1766113;81;21211;-54
2021/12/28 12:16:51;;;;;;;20.90;10.43;;;;;;;-3.66;70.24;100840.99;1782504;79;21194;-54
2021/12/28 12:19:57;;;;;;;18.98;9.78;;;;;;;-3.64;70.60;100816.38;1733020;82;21193;-54
2021/12/28 12:23:14;;;;;;;21.90;11.20;;;;;;;-3.68;70.65;100808.97;1759840;81;21308;-55
2021/12/28 12:26:25;;;;;;;26.82;11.22;;;;;;;-3.80;70.88;100806.05;1735193;82;21961;-54
2021/12/28 12:29:30;;;;;;;23.32;11.80;;;;;;;-3.89;71.27;100804.70;1730701;82;22242;-54
2021/12/28 12:33:14;;;;;;;30.00;13.38;;;;;;;-3.88;71.49;100797.53;1713077;83;21208;-55
2021/12/28 12:36:48;;;;;;;23.92;14.55;;;;;;;-3.88;71.61;100790.39;1719889;83;21790;-55
2021/12/28 12:40:02;;;;;;;21.30;11.57;;;;;;;-3.85;71.63;100790.73;1707968;82;21183;-55
2021/12/28 12:43:18;;;;;;;22.87;12.35;;;;;;;-3.85;71.75;100786.22;1744704;79;21171;-55
2021/12/28 12:46:40;;;;;;;23.25;11.90;;;;;;;-3.81;71.81;100785.61;1783717;79;21836;-55
2021/12/28 12:49:52;;;;;;;25.55;14.33;;;;;;;-3.76;72.01;100780.91;1731737;82;21774;-55
2021/12/28 12:53:02;;;;;;;20.30;11.20;;;;;;;-3.71;71.76;100737.41;1767313;81;21204;-54
2021/12/28 12:56:32;;;;;;;22.82;11.35;;;;;;;-3.81;82.38;100767.77;1737224;81;21431;-55
2021/12/28 12:59:52;;;;;;;21.27;11.20;;;;;;;-3.92;83.77;100779.92;1736873;82;22200;-55
2021/12/28 13:03:13;;;;;;;22.80;10.60;;;;;;;-3.96;84.57;100770.30;1751047;80;21264;-56
2021/12/28 13:07:14;;;;;;;18.07;9.73;;;;;;;-3.90;84.56;100776.72;1753514;81;21211;-56
2021/12/28 13:10:28;;;;;;;18.32;9.43;;;;;;;-3.92;83.83;100766.09;1757929;81;21394;-56
2021/12/28 13:13:40;;;;;;;16.32;9.95;;;;;;;-3.96;83.15;100751.59;1763214;80;21760;-56
2021/12/28 13:16:46;;;;;;;18.20;10.20;;;;;;;-3.97;83.62;100761.91;1763392;79;21388;-56
2021/12/28 13:20:14;;;;;;;22.42;11.75;;;;;;;-3.94;83.73;100757.73;1777373;79;21229;-57
2021/12/28 13:23:21;;;;;;;17.50;11.45;;;;;;;-3.90;83.88;100760.67;1782728;79;21184;-56
2021/12/28 13:26:38;;;;;;;24.85;13.68;;;;;;;-3.96;84.74;100746.25;1802934;78;21561;-56
2021/12/28 13:29:48;;;;;;;24.50;12.18;;;;;;;-3.98;84.91;100743.65;1766171;81;21695;-56
2021/12/28 13:32:59;;;;;;;20.80;11.38;;;;;;;-3.98;86.54;100738.30;1766509;80;21774;-56
2021/12/28 13:36:05;;;;;;;19.90;13.10;;;;;;;-3.94;87.87;100739.02;1767994;79;21355;-58
2021/12/28 13:39:14;;;;;;;23.30;13.10;;;;;;;-3.91;88.28;100733.06;1766437;81;21731;-58
2021/12/28 13:42:24;;;;;;;21.73;13.80;;;;;;;-3.90;88.44;100725.42;1766949;81;21358;-57
2021/12/28 13:45:46;;;;;;;23.60;12.53;;;;;;;-3.89;88.81;100726.30;1750064;81;21934;-58
2021/12/28 13:48:59;;;;;;;19.65;11.05;;;;;;;-3.91;89.12;100711.67;1766052;81;21270;-62
2021/12/28 13:52:11;;;;;;;17.40;11.25;;;;;;;-3.92;89.14;100708.62;1769438;79;21919;-57
2021/12/28 13:55:22;;;;;;;28.92;12.25;;;;;;;-3.94;88.95;100705.14;1758984;79;21251;-57
2021/12/28 13:58:34;;;;;;;18.07;11.20;;;;;;;-3.95;88.85;100710.11;1765461;80;21187;-58
2021/12/28 14:01:44;;;;;;;33.63;17.12;;;;;;;-3.91;88.59;100690.28;1762582;81;21219;-58
2021/12/28 14:04:50;;;;;;;22.75;11.65;;;;;;;-3.85;88.19;100681.10;1754642;81;21682;-58
2021/12/28 14:07:55;;;;;;;15.93;9.73;;;;;;;-3.85;87.71;100690.45;1765611;81;21289;-58
2021/12/28 14:11:06;;;;;;;19.52;11.03;;;;;;;-3.85;87.13;100687.78;1766125;81;21350;-59
2021/12/28 14:14:26;;;;;;;15.70;9.48;;;;;;;-3.82;86.90;100684.95;1766033;81;21350;-58
2021/12/28 14:17:31;;;;;;;16.97;10.55;;;;;;;-3.80;85.91;100674.55;1771069;79;21759;-59
2021/12/28 14:20:36;;;;;;;17.48;9.63;;;;;;;-3.85;85.13;100666.39;1785745;79;21379;-60
2021/12/28 14:23:41;;;;;;;17.30;9.68;;;;;;;-3.85;84.40;100663.72;1793438;79;21204;-60